Estación Meteorológica Peña el Pijo (Robertgarden) [ 01/30/23 14:44:16 CET ]

Fecha Hora Presion(HPa) Temp (°C) Humedad % Rocio (°C) Viento ( m/s) Direccion Lluvia 1Hora(mm) Lluvia 24H(mm) LLuvia Total(mm)
2010-May-15 01:01:14 1008.600 7.6 73 3.1         113.96
2010-May-15 02:01:13 1008.400 7.6 74 3.3         113.96
2010-May-15 03:03:17 1008.100 7.3 75 3.1         113.96
2010-May-15 04:01:13 1007.700 6.9 79 3.5         113.96
2010-May-15 05:01:14 1007.100 6.8 82 3.9         113.96
2010-May-15 06:01:14 1007.000 6.9 82 4.0         113.96
2010-May-15 07:01:12 1006.900 7.6 73 3.1         113.96
2010-May-15 08:01:14 1007.200 7.6 73 3.1         113.96
2010-May-15 09:01:13 1007.900 8.4 71 3.5         113.96
2010-May-15 10:01:11 1008.300 11.3 60 3.8         113.96
2010-May-15 11:01:13 1008.600 13.5 53 4.1         113.96
2010-May-15 12:01:13 1008.700 12.4 54 3.3         113.96
2010-May-15 13:01:16 1009.200 14.8 50 4.5 1.7 WSW     113.96
2010-May-15 14:01:14 1009.400 17.1 41 3.7         113.96
2010-May-15 15:01:13 1009.500 16.9 41 3.5         113.96
2010-May-15 16:01:16 1009.600 16.3 38 1.9         113.96
2010-May-15 17:01:14 1009.600 17.3 37 2.4         113.96
2010-May-15 18:01:17 1010.200 17.2 35 1.5         113.96
2010-May-15 19:01:14 1010.200 16.5 36 1.2         113.96
2010-May-15 20:01:13 1010.500 13.6 40 0.2         113.96
2010-May-15 21:01:10 1011.000 11.3 47 0.3         113.96
2010-May-15 22:01:12 1011.500 8.6 57 0.5         113.96
2010-May-15 23:01:13 1012.400 6.2 66 0.3         113.96

Temperatura Máxima:17°    Temperatura Mínima:
Presión Máxima:1012.400 Hpa    Presión Mínima:1006.900 Hpa


Volver